sensor_id;sensor_type;location;lat;lon;timestamp;pressure;altitude;pressure_sealevel;temperature;humidity
66486;BME280;53303;47.476;8.084;2023-04-23T00:01:13;94854.78;;;20.57;41.90
66486;BME280;53303;47.476;8.084;2023-04-23T00:03:41;94865.56;;;20.61;41.83
66486;BME280;53303;47.476;8.084;2023-04-23T00:06:07;94860.78;;;20.61;41.77
66486;BME280;53303;47.476;8.084;2023-04-23T00:08:42;94860.03;;;20.61;41.79
66486;BME280;53303;47.476;8.084;2023-04-23T00:11:08;94858.50;;;20.60;41.77
66486;BME280;53303;47.476;8.084;2023-04-23T00:13:34;94855.25;;;20.61;41.79
66486;BME280;53303;47.476;8.084;2023-04-23T00:16:00;94854.47;;;20.61;41.91
66486;BME280;53303;47.476;8.084;2023-04-23T00:18:28;94844.44;;;20.58;41.68
66486;BME280;53303;47.476;8.084;2023-04-23T00:20:54;94840.44;;;20.53;41.74
66486;BME280;53303;47.476;8.084;2023-04-23T00:23:20;94854.78;;;20.57;41.87
66486;BME280;53303;47.476;8.084;2023-04-23T00:25:47;94859.25;;;20.60;42.07
66486;BME280;53303;47.476;8.084;2023-04-23T00:28:13;94854.22;;;20.59;41.92
66486;BME280;53303;47.476;8.084;2023-04-23T00:30:40;94858.50;;;20.60;41.72
66486;BME280;53303;47.476;8.084;2023-04-23T00:33:05;94855.09;;;20.53;41.85
66486;BME280;53303;47.476;8.084;2023-04-23T00:35:31;94860.78;;;20.61;41.79
66486;BME280;53303;47.476;8.084;2023-04-23T00:37:57;94858.75;;;20.62;41.72
66486;BME280;53303;47.476;8.084;2023-04-23T00:40:22;94841.28;;;20.48;41.85
66486;BME280;53303;47.476;8.084;2023-04-23T00:42:49;94851.03;;;20.54;41.78
66486;BME280;53303;47.476;8.084;2023-04-23T00:45:16;94842.47;;;20.52;41.94
66486;BME280;53303;47.476;8.084;2023-04-23T00:47:42;94850.50;;;20.56;41.69
66486;BME280;53303;47.476;8.084;2023-04-23T00:50:08;94858.50;;;20.60;41.73
66486;BME280;53303;47.476;8.084;2023-04-23T00:52:37;94869.09;;;20.61;41.64
66486;BME280;53303;47.476;8.084;2023-04-23T00:55:05;94867.06;;;20.62;41.65
66486;BME280;53303;47.476;8.084;2023-04-23T00:57:32;94861.53;;;20.62;41.66
66486;BME280;53303;47.476;8.084;2023-04-23T00:59:58;94865.03;;;20.62;41.81
66486;BME280;53303;47.476;8.084;2023-04-23T01:02:25;94864.06;;;20.60;41.73
66486;BME280;53303;47.476;8.084;2023-04-23T01:04:53;94858.06;;;20.56;41.74
66486;BME280;53303;47.476;8.084;2023-04-23T01:07:21;94862.78;;;20.61;41.62
66486;BME280;53303;47.476;8.084;2023-04-23T01:09:50;94858.75;;;20.62;41.84
66486;BME280;53303;47.476;8.084;2023-04-23T01:12:16;94850.50;;;20.56;41.54
66486;BME280;53303;47.476;8.084;2023-04-23T01:14:42;94861.00;;;20.63;41.59
66486;BME280;53303;47.476;8.084;2023-04-23T01:17:09;94861.00;;;20.63;41.78
66486;BME280;53303;47.476;8.084;2023-04-23T01:19:36;94854.72;;;20.63;41.54
66486;BME280;53303;47.476;8.084;2023-04-23T01:22:07;94846.16;;;20.61;41.57
66486;BME280;53303;47.476;8.084;2023-04-23T01:24:32;94854.72;;;20.63;41.71
66486;BME280;53303;47.476;8.084;2023-04-23T01:26:58;94851.72;;;20.61;41.75
66486;BME280;53303;47.476;8.084;2023-04-23T01:29:24;94856.22;;;20.64;41.64
66486;BME280;53303;47.476;8.084;2023-04-23T01:31:50;94847.88;;;20.64;41.62
66486;BME280;53303;47.476;8.084;2023-04-23T01:34:19;94833.66;;;20.54;41.64
66486;BME280;53303;47.476;8.084;2023-04-23T01:36:45;94852.19;;;20.65;41.43
66486;BME280;53303;47.476;8.084;2023-04-23T01:39:14;94848.66;;;20.64;41.62
66486;BME280;53303;47.476;8.084;2023-04-23T01:41:40;94856.97;;;20.64;41.63
66486;BME280;53303;47.476;8.084;2023-04-23T01:44:06;94845.19;;;20.58;41.58
66486;BME280;53303;47.476;8.084;2023-04-23T01:46:31;94856.97;;;20.64;41.65
66486;BME280;53303;47.476;8.084;2023-04-23T01:48:57;94836.72;;;20.50;41.50
66486;BME280;53303;47.476;8.084;2023-04-23T01:51:23;94833.13;;;20.56;41.47
66486;BME280;53303;47.476;8.084;2023-04-23T01:53:50;94828.53;;;20.58;41.57
66486;BME280;53303;47.476;8.084;2023-04-23T01:56:15;94824.81;;;20.56;41.46
66486;BME280;53303;47.476;8.084;2023-04-23T01:58:43;94842.34;;;20.64;41.59
66486;BME280;53303;47.476;8.084;2023-04-23T02:01:08;94833.13;;;20.56;41.56
66486;BME280;53303;47.476;8.084;2023-04-23T02:03:34;94842.34;;;20.64;41.58
66486;BME280;53303;47.476;8.084;2023-04-23T02:05:59;94829.28;;;20.59;41.54
66486;BME280;53303;47.476;8.084;2023-04-23T02:08:26;94847.38;;;20.65;41.42
66486;BME280;53303;47.476;8.084;2023-04-23T02:10:52;94837.38;;;20.57;41.54
66486;BME280;53303;47.476;8.084;2023-04-23T02:13:17;94839.06;;;20.65;41.41
66486;BME280;53303;47.476;8.084;2023-04-23T02:15:42;94843.84;;;20.65;41.60
66486;BME280;53303;47.476;8.084;2023-04-23T02:18:08;94832.81;;;20.59;41.55
66486;BME280;53303;47.476;8.084;2023-04-23T02:20:35;94839.78;;;20.66;41.53
66486;BME280;53303;47.476;8.084;2023-04-23T02:23:04;94840.56;;;20.66;41.42
66486;BME280;53303;47.476;8.084;2023-04-23T02:25:30;94831.84;;;20.57;41.54
66486;BME280;53303;47.476;8.084;2023-04-23T02:27:56;94837.03;;;20.66;41.55
66486;BME280;53303;47.476;8.084;2023-04-23T02:30:21;94833.06;;;20.61;41.53
66486;BME280;53303;47.476;8.084;2023-04-23T02:32:47;94835.53;;;20.65;41.51
66486;BME280;53303;47.476;8.084;2023-04-23T02:35:12;94828.53;;;20.58;41.59
66486;BME280;53303;47.476;8.084;2023-04-23T02:37:38;94821.69;;;20.65;41.38
66486;BME280;53303;47.476;8.084;2023-04-23T02:40:04;94816.88;;;20.65;41.48
66486;BME280;53303;47.476;8.084;2023-04-23T02:42:35;94813.72;;;20.56;41.74
66486;BME280;53303;47.476;8.084;2023-04-23T02:45:00;94823.47;;;20.62;41.82
66486;BME280;53303;47.476;8.084;2023-04-23T02:47:26;94810.44;;;20.57;41.16
66486;BME280;53303;47.476;8.084;2023-04-23T02:49:55;94825.19;;;20.65;41.52
66486;BME280;53303;47.476;8.084;2023-04-23T02:52:21;94827.97;;;20.65;41.38
66486;BME280;53303;47.476;8.084;2023-04-23T02:54:49;94824.47;;;20.65;41.41
66486;BME280;53303;47.476;8.084;2023-04-23T02:57:15;94824.97;;;20.63;41.16
66486;BME280;53303;47.476;8.084;2023-04-23T02:59:41;94826.72;;;20.66;41.45
66486;BME280;53303;47.476;8.084;2023-04-23T03:02:07;94825.25;;;20.60;41.22
66486;BME280;53303;47.476;8.084;2023-04-23T03:04:32;94825.94;;;20.66;41.42
66486;BME280;53303;47.476;8.084;2023-04-23T03:06:58;94827.97;;;20.65;41.43
66486;BME280;53303;47.476;8.084;2023-04-23T03:09:23;94837.78;;;20.66;41.45
66486;BME280;53303;47.476;8.084;2023-04-23T03:11:51;94821.47;;;20.63;41.38
66486;BME280;53303;47.476;8.084;2023-04-23T03:14:19;94824.81;;;20.56;41.53
66486;BME280;53303;47.476;8.084;2023-04-23T03:16:44;94818.44;;;20.61;41.37
66486;BME280;53303;47.476;8.084;2023-04-23T03:19:10;94828.50;;;20.64;41.46
66486;BME280;53303;47.476;8.084;2023-04-23T03:21:35;94827.75;;;20.63;41.35
66486;BME280;53303;47.476;8.084;2023-04-23T03:24:01;94823.94;;;20.66;41.31
66486;BME280;53303;47.476;8.084;2023-04-23T03:26:28;94806.91;;;20.57;41.27
66486;BME280;53303;47.476;8.084;2023-04-23T03:28:54;94810.91;;;20.61;41.45
66486;BME280;53303;47.476;8.084;2023-04-23T03:31:19;94810.81;;;20.67;41.46
66486;BME280;53303;47.476;8.084;2023-04-23T03:33:44;94810.06;;;20.66;41.61
66486;BME280;53303;47.476;8.084;2023-04-23T03:36:10;94805.28;;;20.67;41.42
66486;BME280;53303;47.476;8.084;2023-04-23T03:38:38;94808.56;;;20.65;41.28
66486;BME280;53303;47.476;8.084;2023-04-23T03:41:03;94811.13;;;20.63;41.50
66486;BME280;53303;47.476;8.084;2023-04-23T03:43:29;94800.09;;;20.58;41.27
66486;BME280;53303;47.476;8.084;2023-04-23T03:45:55;94815.63;;;20.66;41.30
66486;BME280;53303;47.476;8.084;2023-04-23T03:48:20;94803.38;;;20.56;41.34
66486;BME280;53303;47.476;8.084;2023-04-23T03:50:46;94809.31;;;20.66;41.31
66486;BME280;53303;47.476;8.084;2023-04-23T03:53:11;94806.53;;;20.66;41.21
66486;BME280;53303;47.476;8.084;2023-04-23T03:55:36;94814.31;;;20.67;41.30
66486;BME280;53303;47.476;8.084;2023-04-23T03:58:02;94821.91;;;20.67;41.40
66486;BME280;53303;47.476;8.084;2023-04-23T04:00:27;94807.31;;;20.66;41.64
66486;BME280;53303;47.476;8.084;2023-04-23T04:02:53;94800.81;;;20.58;41.35
66486;BME280;53303;47.476;8.084;2023-04-23T04:05:19;94801.03;;;20.60;41.75
66486;BME280;53303;47.476;8.084;2023-04-23T04:07:44;94806.31;;;20.64;41.25
66486;BME280;53303;47.476;8.084;2023-04-23T04:10:10;94813.59;;;20.67;41.34
66486;BME280;53303;47.476;8.084;2023-04-23T04:12:37;94808.88;;;20.62;41.45
66486;BME280;53303;47.476;8.084;2023-04-23T04:15:04;94809.84;;;20.64;41.55
66486;BME280;53303;47.476;8.084;2023-04-23T04:17:30;94820.63;;;20.68;41.21
66486;BME280;53303;47.476;8.084;2023-04-23T04:19:55;94813.59;;;20.67;41.34
66486;BME280;53303;47.476;8.084;2023-04-23T04:22:20;94813.59;;;20.67;41.41
66486;BME280;53303;47.476;8.084;2023-04-23T04:24:46;94811.34;;;20.65;41.13
66486;BME280;53303;47.476;8.084;2023-04-23T04:27:13;94817.09;;;20.67;41.22
66486;BME280;53303;47.476;8.084;2023-04-23T04:29:38;94806.53;;;20.66;41.62
66486;BME280;53303;47.476;8.084;2023-04-23T04:32:07;94817.09;;;20.67;41.34
66486;BME280;53303;47.476;8.084;2023-04-23T04:34:32;94804.59;;;20.61;41.02
66486;BME280;53303;47.476;8.084;2023-04-23T04:37:00;94793.81;;;20.57;41.33
66486;BME280;53303;47.476;8.084;2023-04-23T04:39:25;94797.53;;;20.60;41.03
66486;BME280;53303;47.476;8.084;2023-04-23T04:41:51;94790.25;;;20.57;41.49
66486;BME280;53303;47.476;8.084;2023-04-23T04:44:17;94789.81;;;20.52;41.41
66486;BME280;53303;47.476;8.084;2023-04-23T04:46:42;94798.53;;;20.62;41.42
66486;BME280;53303;47.476;8.084;2023-04-23T04:49:11;94799.50;;;20.65;41.18
66486;BME280;53303;47.476;8.084;2023-04-23T04:51:37;94802.81;;;20.63;41.50
66486;BME280;53303;47.476;8.084;2023-04-23T04:54:03;94791.56;;;20.56;41.38
66486;BME280;53303;47.476;8.084;2023-04-23T04:56:29;94811.56;;;20.67;41.48
66486;BME280;53303;47.476;8.084;2023-04-23T04:58:54;94813.59;;;20.67;41.40
66486;BME280;53303;47.476;8.084;2023-04-23T05:01:20;94796.78;;;20.59;41.41
66486;BME280;53303;47.476;8.084;2023-04-23T05:03:46;94814.09;;;20.65;41.43
66486;BME280;53303;47.476;8.084;2023-04-23T05:06:11;94795.00;;;20.62;41.40
66486;BME280;53303;47.476;8.084;2023-04-23T05:08:39;94815.84;;;20.68;41.39
66486;BME280;53303;47.476;8.084;2023-04-23T05:11:06;94809.09;;;20.64;41.42
66486;BME280;53303;47.476;8.084;2023-04-23T05:13:31;94813.59;;;20.67;41.48
66486;BME280;53303;47.476;8.084;2023-04-23T05:16:00;94761.91;;;20.31;41.39
66486;BME280;53303;47.476;8.084;2023-04-23T05:18:25;94810.91;;;20.61;41.43
66486;BME280;53303;47.476;8.084;2023-04-23T05:20:50;94821.38;;;20.68;41.48
66486;BME280;53303;47.476;8.084;2023-04-23T05:23:16;94820.63;;;20.68;41.34
66486;BME280;53303;47.476;8.084;2023-04-23T05:25:42;94815.84;;;20.68;41.49
66486;BME280;53303;47.476;8.084;2023-04-23T05:28:08;94818.59;;;20.68;41.45
66486;BME280;53303;47.476;8.084;2023-04-23T05:30:33;94805.84;;;20.60;41.20
66486;BME280;53303;47.476;8.084;2023-04-23T05:32:59;94807.31;;;20.66;41.37
66486;BME280;53303;47.476;8.084;2023-04-23T05:35:24;94798.06;;;20.58;41.40
66486;BME280;53303;47.476;8.084;2023-04-23T05:37:49;94807.53;;;20.68;41.24
66486;BME280;53303;47.476;8.084;2023-04-23T05:40:15;94802.84;;;20.58;41.51
66486;BME280;53303;47.476;8.084;2023-04-23T05:42:41;94814.31;;;20.67;41.41
66486;BME280;53303;47.476;8.084;2023-04-23T05:45:06;94776.13;;;20.41;41.42
66486;BME280;53303;47.476;8.084;2023-04-23T05:47:32;94794.53;;;20.58;41.49
66486;BME280;53303;47.476;8.084;2023-04-23T05:49:58;94804.00;;;20.68;41.49
66486;BME280;53303;47.476;8.084;2023-04-23T05:52:25;94806.78;;;20.68;41.68
66486;BME280;53303;47.476;8.084;2023-04-23T05:54:51;94780.69;;;20.58;41.78
66486;BME280;53303;47.476;8.084;2023-04-23T05:57:19;94787.19;;;20.60;41.59
66486;BME280;53303;47.476;8.084;2023-04-23T05:59:44;94793.66;;;20.68;41.86
66486;BME280;53303;47.476;8.084;2023-04-23T06:02:10;94797.16;;;20.69;42.27
66486;BME280;53303;47.476;8.084;2023-04-23T06:04:36;94794.41;;;20.69;42.42
66486;BME280;53303;47.476;8.084;2023-04-23T06:07:02;94789.59;;;20.69;42.42
66486;BME280;53303;47.476;8.084;2023-04-23T06:09:27;94781.81;;;20.68;42.52
66486;BME280;53303;47.476;8.084;2023-04-23T06:11:53;94782.13;;;20.64;42.31
66486;BME280;53303;47.476;8.084;2023-04-23T06:14:19;94772.09;;;20.61;42.40
66486;BME280;53303;47.476;8.084;2023-04-23T06:16:46;94774.03;;;20.66;42.34
66486;BME280;53303;47.476;8.084;2023-04-23T06:19:12;94783.91;;;20.62;42.09
66486;BME280;53303;47.476;8.084;2023-04-23T06:21:39;94784.13;;;20.64;42.28
66486;BME280;53303;47.476;8.084;2023-04-23T06:24:06;94782.66;;;20.63;42.25
66486;BME280;53303;47.476;8.084;2023-04-23T06:26:32;94773.56;;;20.62;42.22
66486;BME280;53303;47.476;8.084;2023-04-23T06:28:57;94762.53;;;20.57;42.12
66486;BME280;53303;47.476;8.084;2023-04-23T06:31:23;94760.00;;;20.59;42.06
66486;BME280;53303;47.476;8.084;2023-04-23T06:33:54;94765.00;;;20.60;42.09
66486;BME280;53303;47.476;8.084;2023-04-23T06:36:19;94749.75;;;20.53;42.13
66486;BME280;53303;47.476;8.084;2023-04-23T06:38:45;94741.00;;;20.49;42.24
66486;BME280;53303;47.476;8.084;2023-04-23T06:41:10;94746.75;;;20.51;42.09
66486;BME280;53303;47.476;8.084;2023-04-23T06:43:39;94747.94;;;20.56;42.10
66486;BME280;53303;47.476;8.084;2023-04-23T06:46:04;94748.69;;;20.57;42.35
66486;BME280;53303;47.476;8.084;2023-04-23T06:48:30;94741.66;;;20.56;42.12
66486;BME280;53303;47.476;8.084;2023-04-23T06:50:56;94733.97;;;20.48;42.56
66486;BME280;53303;47.476;8.084;2023-04-23T06:53:22;94734.91;;;20.51;42.30
66486;BME280;53303;47.476;8.084;2023-04-23T06:55:47;94747.00;;;20.53;42.24
66486;BME280;53303;47.476;8.084;2023-04-23T06:58:16;94732.88;;;20.51;42.12
66486;BME280;53303;47.476;8.084;2023-04-23T07:00:42;94732.38;;;20.53;42.08
66486;BME280;53303;47.476;8.084;2023-04-23T07:03:08;94726.09;;;20.52;41.89
66486;BME280;53303;47.476;8.084;2023-04-23T07:05:33;94713.78;;;20.48;41.96
66486;BME280;53303;47.476;8.084;2023-04-23T07:07:59;94724.56;;;20.51;41.96
66486;BME280;53303;47.476;8.084;2023-04-23T07:10:24;94704.72;;;20.34;42.15
66486;BME280;53303;47.476;8.084;2023-04-23T07:12:50;94725.88;;;20.50;42.10
66486;BME280;53303;47.476;8.084;2023-04-23T07:15:17;94711.56;;;20.46;42.00
66486;BME280;53303;47.476;8.084;2023-04-23T07:17:43;94706.19;;;20.35;42.01
66486;BME280;53303;47.476;8.084;2023-04-23T07:20:08;94695.63;;;20.33;42.06
66486;BME280;53303;47.476;8.084;2023-04-23T07:22:34;94715.91;;;20.42;42.04
66486;BME280;53303;47.476;8.084;2023-04-23T07:25:00;94711.19;;;20.37;41.97
66486;BME280;53303;47.476;8.084;2023-04-23T07:27:26;94719.94;;;20.41;41.94
66486;BME280;53303;47.476;8.084;2023-04-23T07:29:51;94718.47;;;20.40;42.03
66486;BME280;53303;47.476;8.084;2023-04-23T07:32:22;94719.66;;;20.44;42.04
66486;BME280;53303;47.476;8.084;2023-04-23T07:34:50;94723.41;;;20.47;42.08
66486;BME280;53303;47.476;8.084;2023-04-23T07:37:15;94723.41;;;20.47;42.12
66486;BME280;53303;47.476;8.084;2023-04-23T07:39:41;94721.81;;;20.51;41.88
66486;BME280;53303;47.476;8.084;2023-04-23T07:42:06;94705.06;;;20.44;41.88
66486;BME280;53303;47.476;8.084;2023-04-23T07:44:34;94721.28;;;20.53;41.88
66486;BME280;53303;47.476;8.084;2023-04-23T07:47:00;94712.97;;;20.53;41.81
66486;BME280;53303;47.476;8.084;2023-04-23T07:49:27;94701.22;;;20.47;41.96
66486;BME280;53303;47.476;8.084;2023-04-23T07:51:56;94697.41;;;20.50;41.89
66486;BME280;53303;47.476;8.084;2023-04-23T07:54:21;94712.44;;;20.54;41.92
66486;BME280;53303;47.476;8.084;2023-04-23T07:56:49;94698.97;;;20.45;41.92
66486;BME280;53303;47.476;8.084;2023-04-23T07:59:17;94705.47;;;20.48;42.02
66486;BME280;53303;47.476;8.084;2023-04-23T08:01:43;94705.84;;;20.58;41.99
66486;BME280;53303;47.476;8.084;2023-04-23T08:04:08;94705.13;;;20.57;41.91
66486;BME280;53303;47.476;8.084;2023-04-23T08:06:36;94695.59;;;20.52;41.61
66486;BME280;53303;47.476;8.084;2023-04-23T08:09:02;94694.63;;;20.50;41.70
66486;BME280;53303;47.476;8.084;2023-04-23T08:11:31;94700.53;;;20.60;41.83
66486;BME280;53303;47.476;8.084;2023-04-23T08:13:57;94702.03;;;20.61;41.88
66486;BME280;53303;47.476;8.084;2023-04-23T08:16:25;94672.16;;;20.53;41.56
66486;BME280;53303;47.476;8.084;2023-04-23T08:18:50;94679.19;;;20.54;41.99
66486;BME280;53303;47.476;8.084;2023-04-23T08:21:16;94689.69;;;20.62;41.60
66486;BME280;53303;47.476;8.084;2023-04-23T08:23:41;94693.44;;;20.64;41.45
66486;BME280;53303;47.476;8.084;2023-04-23T08:26:06;94642.25;;;20.33;41.61
66486;BME280;53303;47.476;8.084;2023-04-23T08:28:32;94685.84;;;20.65;41.63
66486;BME280;53303;47.476;8.084;2023-04-23T08:30:57;94675.16;;;20.56;41.63
66486;BME280;53303;47.476;8.084;2023-04-23T08:33:23;94678.13;;;20.58;41.72
66486;BME280;53303;47.476;8.084;2023-04-23T08:35:48;94682.56;;;20.66;41.61
66486;BME280;53303;47.476;8.084;2023-04-23T08:38:14;94670.03;;;20.60;41.63
66486;BME280;53303;47.476;8.084;2023-04-23T08:40:41;94680.75;;;20.69;41.59
66486;BME280;53303;47.476;8.084;2023-04-23T08:43:15;94672.22;;;20.67;41.57
66486;BME280;53303;47.476;8.084;2023-04-23T08:45:48;94671.16;;;20.70;41.56
66486;BME280;53303;47.476;8.084;2023-04-23T08:48:17;94669.13;;;20.70;41.39
66486;BME280;53303;47.476;8.084;2023-04-23T08:50:43;94664.94;;;20.64;41.33
66486;BME280;53303;47.476;8.084;2023-04-23T08:53:09;94672.88;;;20.73;41.70
66486;BME280;53303;47.476;8.084;2023-04-23T08:55:35;94667.34;;;20.73;41.45
66486;BME280;53303;47.476;8.084;2023-04-23T08:58:01;94655.38;;;20.65;41.67
66486;BME280;53303;47.476;8.084;2023-04-23T09:00:31;94664.78;;;20.75;41.55
66486;BME280;53303;47.476;8.084;2023-04-23T09:02:58;94658.78;;;20.71;41.66
66486;BME280;53303;47.476;8.084;2023-04-23T09:05:26;94643.22;;;20.68;41.53
66486;BME280;53303;47.476;8.084;2023-04-23T09:07:52;94652.41;;;20.76;41.61
66486;BME280;53303;47.476;8.084;2023-04-23T09:10:18;94642.59;;;20.75;41.51
66486;BME280;53303;47.476;8.084;2023-04-23T09:12:44;94649.63;;;20.76;41.48
66486;BME280;53303;47.476;8.084;2023-04-23T09:15:10;94649.31;;;20.80;41.48
66486;BME280;53303;47.476;8.084;2023-04-23T09:17:42;94628.53;;;20.73;41.60
66486;BME280;53303;47.476;8.084;2023-04-23T09:20:08;94631.50;;;20.75;41.30
66486;BME280;53303;47.476;8.084;2023-04-23T09:25:10;94641.19;;;20.82;41.52
66486;BME280;53303;47.476;8.084;2023-04-23T09:27:36;94636.41;;;20.82;41.46
66486;BME280;53303;47.476;8.084;2023-04-23T09:30:03;94570.84;;;20.26;41.56
66486;BME280;53303;47.476;8.084;2023-04-23T09:32:35;94629.78;;;20.85;41.39
66486;BME280;53303;47.476;8.084;2023-04-23T09:35:05;94628.53;;;20.86;41.41
66486;BME280;53303;47.476;8.084;2023-04-23T09:37:32;94619.03;;;20.82;41.22
66486;BME280;53303;47.476;8.084;2023-04-23T09:40:01;94604.31;;;20.73;41.36
66486;BME280;53303;47.476;8.084;2023-04-23T09:42:28;94622.78;;;20.84;41.47
66486;BME280;53303;47.476;8.084;2023-04-23T09:45:01;94616.25;;;20.82;41.27
66486;BME280;53303;47.476;8.084;2023-04-23T09:47:31;94625.00;;;20.86;41.33
66486;BME280;53303;47.476;8.084;2023-04-23T09:49:58;94613.59;;;20.89;41.26
66486;BME280;53303;47.476;8.084;2023-04-23T09:52:23;94597.91;;;20.79;41.47
66486;BME280;53303;47.476;8.084;2023-04-23T09:54:49;94598.75;;;20.87;41.26
66486;BME280;53303;47.476;8.084;2023-04-23T09:57:14;94595.03;;;20.84;41.37
66486;BME280;53303;47.476;8.084;2023-04-23T09:59:40;94602.50;;;20.89;41.33
66486;BME280;53303;47.476;8.084;2023-04-23T10:02:07;94603.25;;;20.90;41.59
66486;BME280;53303;47.476;8.084;2023-04-23T10:04:39;94612.75;;;20.95;41.20
66486;BME280;53303;47.476;8.084;2023-04-23T10:07:06;94584.06;;;20.79;41.23
66486;BME280;53303;47.476;8.084;2023-04-23T10:09:35;94605.69;;;20.94;41.27
66486;BME280;53303;47.476;8.084;2023-04-23T10:12:03;94582.25;;;20.81;41.04
66486;BME280;53303;47.476;8.084;2023-04-23T10:14:29;94601.53;;;20.87;41.21
66486;BME280;53303;47.476;8.084;2023-04-23T10:17:00;94608.69;;;20.96;41.21
66486;BME280;53303;47.476;8.084;2023-04-23T10:19:27;94599.75;;;20.89;41.29
66486;BME280;53303;47.476;8.084;2023-04-23T10:22:00;94590.44;;;20.87;41.32
66486;BME280;53303;47.476;8.084;2023-04-23T10:24:34;94606.66;;;20.96;41.04
66486;BME280;53303;47.476;8.084;2023-04-23T10:27:02;94601.09;;;20.96;41.47
66486;BME280;53303;47.476;8.084;2023-04-23T10:29:34;94583.63;;;20.88;41.23
66486;BME280;53303;47.476;8.084;2023-04-23T10:32:02;94588.53;;;20.95;41.53
66486;BME280;53303;47.476;8.084;2023-04-23T10:34:31;94596.00;;;21.00;41.34
66486;BME280;53303;47.476;8.084;2023-04-23T10:36:58;94589.94;;;21.02;41.19
66486;BME280;53303;47.476;8.084;2023-04-23T10:39:26;94584.59;;;21.04;41.15
66486;BME280;53303;47.476;8.084;2023-04-23T10:41:55;94579.78;;;21.04;40.98
66486;BME280;53303;47.476;8.084;2023-04-23T10:44:21;94577.75;;;21.05;41.04
66486;BME280;53303;47.476;8.084;2023-04-23T10:46:55;94564.44;;;21.03;40.93
66486;BME280;53303;47.476;8.084;2023-04-23T10:49:23;94567.75;;;21.02;41.07
66486;BME280;53303;47.476;8.084;2023-04-23T10:52:18;94571.66;;;21.06;41.08
66486;BME280;53303;47.476;8.084;2023-04-23T10:54:51;94566.88;;;21.07;41.07
66486;BME280;53303;47.476;8.084;2023-04-23T10:57:20;94552.38;;;21.01;41.18
66486;BME280;53303;47.476;8.084;2023-04-23T10:59:54;94558.00;;;21.08;40.90
66486;BME280;53303;47.476;8.084;2023-04-23T11:02:22;94560.25;;;21.10;41.10
66486;BME280;53303;47.476;8.084;2023-04-23T11:04:56;94554.50;;;21.08;40.98
66486;BME280;53303;47.476;8.084;2023-04-23T11:07:28;94544.69;;;21.07;41.17
66486;BME280;53303;47.476;8.084;2023-04-23T11:09:57;94551.19;;;21.09;41.12
66486;BME280;53303;47.476;8.084;2023-04-23T11:14:49;94544.13;;;21.08;41.23
66486;BME280;53303;47.476;8.084;2023-04-23T11:17:17;94532.50;;;21.10;41.08
66486;BME280;53303;47.476;8.084;2023-04-23T11:22:39;94531.03;;;21.09;41.27
66486;BME280;53303;47.476;8.084;2023-04-23T11:25:09;94533.03;;;21.08;41.00
66486;BME280;53303;47.476;8.084;2023-04-23T11:27:43;94526.56;;;21.06;41.15
66486;BME280;53303;47.476;8.084;2023-04-23T11:30:20;94523.56;;;21.04;40.97
66486;BME280;53303;47.476;8.084;2023-04-23T11:32:48;94504.69;;;21.02;40.92
66486;BME280;53303;47.476;8.084;2023-04-23T11:35:15;94511.09;;;21.10;41.33
66486;BME280;53303;47.476;8.084;2023-04-23T11:37:43;94518.09;;;21.11;41.18
66486;BME280;53303;47.476;8.084;2023-04-23T11:40:11;94507.75;;;21.12;41.21
66486;BME280;53303;47.476;8.084;2023-04-23T11:42:46;94512.56;;;21.11;41.24
66486;BME280;53303;47.476;8.084;2023-04-23T11:45:18;94500.19;;;21.13;40.92
66486;BME280;53303;47.476;8.084;2023-04-23T11:47:45;94496.66;;;21.12;41.02
66486;BME280;53303;47.476;8.084;2023-04-23T11:50:18;94491.44;;;21.08;41.16
66486;BME280;53303;47.476;8.084;2023-04-23T11:52:44;94496.31;;;21.16;41.17
66486;BME280;53303;47.476;8.084;2023-04-23T11:55:10;94493.78;;;21.18;41.02
66486;BME280;53303;47.476;8.084;2023-04-23T11:57:41;94484.16;;;21.19;41.20
66486;BME280;53303;47.476;8.084;2023-04-23T12:03:00;94476.91;;;21.16;41.18
66486;BME280;53303;47.476;8.084;2023-04-23T12:05:35;94473.81;;;21.19;41.00
66486;BME280;53303;47.476;8.084;2023-04-23T12:08:14;94461.78;;;21.17;41.05
66486;BME280;53303;47.476;8.084;2023-04-23T12:10:51;94456.75;;;21.15;41.22
66486;BME280;53303;47.476;8.084;2023-04-23T12:13:22;94441.47;;;21.22;41.28
66486;BME280;53303;47.476;8.084;2023-04-23T12:15:49;94440.94;;;21.23;41.12
66486;BME280;53303;47.476;8.084;2023-04-23T12:18:15;94444.47;;;21.24;40.97
66486;BME280;53303;47.476;8.084;2023-04-23T12:20:41;94428.06;;;21.13;41.02
66486;BME280;53303;47.476;8.084;2023-04-23T12:23:07;94438.38;;;21.25;40.96
66486;BME280;53303;47.476;8.084;2023-04-23T12:25:33;94438.38;;;21.25;40.98
66486;BME280;53303;47.476;8.084;2023-04-23T12:28:00;94431.53;;;21.26;41.12
66486;BME280;53303;47.476;8.084;2023-04-23T12:30:29;94429.50;;;21.27;40.87
66486;BME280;53303;47.476;8.084;2023-04-23T12:33:02;94417.38;;;21.17;40.98
66486;BME280;53303;47.476;8.084;2023-04-23T12:35:58;94431.00;;;21.28;40.98
66486;BME280;53303;47.476;8.084;2023-04-23T12:38:25;94428.41;;;21.30;40.98
66486;BME280;53303;47.476;8.084;2023-04-23T12:40:52;94431.75;;;21.28;40.98
66486;BME280;53303;47.476;8.084;2023-04-23T12:43:17;94424.16;;;21.29;41.19
66486;BME280;53303;47.476;8.084;2023-04-23T12:45:43;94424.31;;;21.23;40.84
66486;BME280;53303;47.476;8.084;2023-04-23T12:48:09;94435.25;;;21.29;41.06
66486;BME280;53303;47.476;8.084;2023-04-23T12:50:35;94436.97;;;21.32;40.92
66486;BME280;53303;47.476;8.084;2023-04-23T12:53:04;94410.75;;;21.20;41.14
66486;BME280;53303;47.476;8.084;2023-04-23T12:55:29;94418.09;;;21.30;41.21
66486;BME280;53303;47.476;8.084;2023-04-23T12:57:57;94424.91;;;21.29;41.24
66486;BME280;53303;47.476;8.084;2023-04-23T13:00:23;94413.81;;;21.29;41.04
66486;BME280;53303;47.476;8.084;2023-04-23T13:02:49;94405.47;;;21.29;41.09
66486;BME280;53303;47.476;8.084;2023-04-23T13:05:15;94402.72;;;21.29;41.25
66486;BME280;53303;47.476;8.084;2023-04-23T13:07:40;94376.19;;;21.21;41.08
66486;BME280;53303;47.476;8.084;2023-04-23T13:10:07;94393.84;;;21.31;40.96